createdAt,value
2017-08-24T00:00:36.613Z,36.37
2017-08-24T00:03:04.188Z,40.07
2017-08-24T00:05:31.783Z,40.47
2017-08-24T00:07:59.396Z,51.80
2017-08-24T00:10:26.970Z,50.87
2017-08-24T00:12:54.546Z,48.30
2017-08-24T00:15:22.135Z,52.53
2017-08-24T00:17:50.468Z,43.63
2017-08-24T00:20:18.040Z,46.17
2017-08-24T00:22:46.030Z,49.57
2017-08-24T00:25:14.365Z,44.67
2017-08-24T00:27:41.949Z,53.67
2017-08-24T00:30:09.554Z,60.07
2017-08-24T00:32:37.122Z,45.80
2017-08-24T00:35:04.685Z,53.30
2017-08-24T00:37:32.272Z,56.47
2017-08-24T00:39:59.853Z,52.57
2017-08-24T00:42:27.421Z,54.63
2017-08-24T00:44:55.037Z,49.80
2017-08-24T00:47:22.619Z,51.47
2017-08-24T00:49:50.193Z,48.80
2017-08-24T00:52:17.788Z,52.93
2017-08-24T00:54:45.353Z,57.70
2017-08-24T00:57:12.921Z,58.33
2017-08-24T00:59:40.530Z,50.70
2017-08-24T01:02:08.113Z,43.30
2017-08-24T01:04:35.675Z,55.30
2017-08-24T01:07:03.304Z,51.03
2017-08-24T01:09:30.865Z,62.17
2017-08-24T01:11:58.449Z,46.50
2017-08-24T01:14:26.028Z,52.77
2017-08-24T01:16:53.601Z,46.63
2017-08-24T01:19:21.148Z,38.63
2017-08-24T01:21:48.753Z,40.47
2017-08-24T01:24:16.314Z,41.93
2017-08-24T01:26:43.882Z,45.93
2017-08-24T01:29:11.500Z,45.13
2017-08-24T01:31:39.088Z,42.20
2017-08-24T01:34:06.637Z,44.20
2017-08-24T01:36:34.252Z,42.43
2017-08-24T01:39:01.831Z,39.30
2017-08-24T01:41:29.390Z,35.20
2017-08-24T01:43:56.999Z,34.90
2017-08-24T01:46:24.566Z,45.90
2017-08-24T01:48:52.116Z,42.50
2017-08-24T01:51:19.733Z,44.97
2017-08-24T01:53:47.312Z,39.27
2017-08-24T01:56:14.886Z,38.77
2017-08-24T01:58:42.506Z,37.83
2017-08-24T02:01:10.078Z,40.87
2017-08-24T02:03:37.651Z,38.53
2017-08-24T02:06:05.370Z,41.87
2017-08-24T02:08:32.903Z,36.70
2017-08-24T02:11:00.454Z,44.80
2017-08-24T02:13:28.029Z,42.57
2017-08-24T02:15:55.564Z,42.37
2017-08-24T02:18:23.097Z,45.13
2017-08-24T02:20:50.672Z,50.97
2017-08-24T02:23:18.200Z,35.43
2017-08-24T02:25:45.732Z,42.83
2017-08-24T02:28:13.306Z,45.20
2017-08-24T02:30:40.833Z,42.77
2017-08-24T02:33:08.386Z,33.20
2017-08-24T02:35:35.946Z,43.03
2017-08-24T02:38:03.505Z,46.53
2017-08-24T02:40:31.063Z,39.50
2017-08-24T02:42:58.643Z,37.17
2017-08-24T02:45:26.197Z,42.50
2017-08-24T02:47:53.728Z,40.87
2017-08-24T02:50:21.304Z,51.47
2017-08-24T02:52:48.850Z,45.13
2017-08-24T02:55:16.383Z,38.70
2017-08-24T02:57:43.964Z,42.50
2017-08-24T03:00:11.508Z,42.13
2017-08-24T03:02:39.055Z,40.10
2017-08-24T03:05:06.637Z,49.17
2017-08-24T03:07:34.191Z,47.30
2017-08-24T03:10:01.727Z,45.53
2017-08-24T03:12:29.313Z,39.53
2017-08-24T03:14:56.848Z,42.73
2017-08-24T03:17:24.385Z,43.97
2017-08-24T03:19:51.964Z,69.60
2017-08-24T03:22:19.506Z,51.57
2017-08-24T03:24:47.044Z,52.77
2017-08-24T03:27:14.631Z,39.40
2017-08-24T03:29:42.169Z,38.30
2017-08-24T03:32:09.703Z,42.20
2017-08-24T03:34:37.279Z,46.93
2017-08-24T03:37:04.818Z,35.13
2017-08-24T03:39:32.344Z,30.90
2017-08-24T03:41:59.910Z,24.70
2017-08-24T03:44:27.440Z,36.20
2017-08-24T03:46:54.989Z,30.70
2017-08-24T03:49:22.548Z,25.00
2017-08-24T03:51:50.088Z,38.03
2017-08-24T03:54:17.638Z,23.03
2017-08-24T03:56:45.213Z,25.30
2017-08-24T03:59:12.750Z,24.43
2017-08-24T04:01:40.282Z,25.97
2017-08-24T04:04:07.867Z,36.83
2017-08-24T04:06:35.428Z,23.43
2017-08-24T04:09:02.965Z,40.40
2017-08-24T04:11:31.297Z,28.90
2017-08-24T04:13:58.855Z,30.30
2017-08-24T04:16:26.409Z,31.23
2017-08-24T04:18:53.986Z,27.17
2017-08-24T04:21:21.517Z,27.63
2017-08-24T04:23:49.052Z,32.30
2017-08-24T04:26:16.616Z,30.17
2017-08-24T04:28:44.155Z,35.47
2017-08-24T04:31:11.690Z,41.67
2017-08-24T04:33:39.254Z,36.13
2017-08-24T04:36:06.868Z,32.03
2017-08-24T04:38:34.408Z,31.30
2017-08-24T04:41:02.023Z,30.17
2017-08-24T04:43:29.548Z,40.53
2017-08-24T04:45:57.089Z,53.30
2017-08-24T04:48:24.645Z,44.63
2017-08-24T04:50:52.191Z,32.70
2017-08-24T04:53:19.746Z,32.70
2017-08-24T04:55:47.315Z,41.60
2017-08-24T04:58:14.862Z,30.73
2017-08-24T05:00:42.392Z,31.93
2017-08-24T05:03:09.980Z,32.13
2017-08-24T05:05:37.526Z,33.70
2017-08-24T05:08:05.065Z,37.77
2017-08-24T05:10:32.644Z,28.30
2017-08-24T05:13:00.191Z,40.73
2017-08-24T05:15:27.743Z,27.67
2017-08-24T05:17:55.313Z,30.87
2017-08-24T05:20:22.848Z,34.73
2017-08-24T05:22:50.377Z,24.80
2017-08-24T05:25:17.945Z,31.37
2017-08-24T05:27:45.544Z,30.93
2017-08-24T05:30:13.082Z,43.47
2017-08-24T05:32:40.996Z,34.50
2017-08-24T05:35:08.525Z,25.97
2017-08-24T05:37:36.071Z,39.83
2017-08-24T05:40:03.633Z,37.43
2017-08-24T05:42:31.175Z,27.93
2017-08-24T05:44:58.709Z,27.80
2017-08-24T05:47:26.284Z,33.80
2017-08-24T05:49:53.832Z,26.43
2017-08-24T05:52:21.364Z,32.60
2017-08-24T05:54:48.942Z,31.03
2017-08-24T05:57:16.489Z,30.37
2017-08-24T05:59:44.039Z,39.00
2017-08-24T06:02:11.610Z,34.40
2017-08-24T06:04:39.149Z,27.73
2017-08-24T06:07:06.676Z,27.83
2017-08-24T06:09:34.228Z,32.13
2017-08-24T06:12:01.770Z,22.80
2017-08-24T06:14:29.296Z,27.67
2017-08-24T06:16:56.902Z,24.97
2017-08-24T06:19:24.443Z,36.73
2017-08-24T06:21:51.992Z,34.67
2017-08-24T06:24:19.578Z,33.23
2017-08-24T06:26:47.123Z,31.23
2017-08-24T06:29:14.661Z,28.83
2017-08-24T06:31:42.243Z,26.20
2017-08-24T06:34:09.797Z,30.43
2017-08-24T06:36:37.358Z,29.10
2017-08-24T06:39:04.946Z,29.73
2017-08-24T06:41:33.254Z,23.70
2017-08-24T06:44:00.793Z,28.03
2017-08-24T06:46:28.357Z,34.67
2017-08-24T06:48:55.914Z,36.30
2017-08-24T06:51:23.463Z,31.10
2017-08-24T06:53:51.023Z,31.20
2017-08-24T06:56:18.588Z,31.97
2017-08-24T06:58:46.130Z,27.30
2017-08-24T07:01:13.698Z,35.63
2017-08-24T07:03:41.227Z,33.63
2017-08-24T07:06:08.769Z,26.50
2017-08-24T07:08:36.349Z,35.43
2017-08-24T07:11:03.899Z,31.23
2017-08-24T07:13:31.438Z,28.80
2017-08-24T07:15:59.784Z,36.20
2017-08-24T07:18:27.332Z,41.90
2017-08-24T07:20:54.882Z,28.47
2017-08-24T07:23:22.456Z,30.47
2017-08-24T07:25:50.010Z,26.73
2017-08-24T07:28:17.572Z,27.63
2017-08-24T07:30:45.142Z,27.73
2017-08-24T07:33:12.688Z,27.70
2017-08-24T07:35:40.220Z,30.60
2017-08-24T07:38:07.799Z,33.93
2017-08-24T07:40:35.338Z,28.73
2017-08-24T07:43:02.895Z,38.87
2017-08-24T07:45:30.479Z,28.67
2017-08-24T07:47:58.034Z,28.07
2017-08-24T07:50:25.569Z,26.33
2017-08-24T07:52:53.147Z,30.80
2017-08-24T07:55:21.482Z,23.73
2017-08-24T07:57:49.019Z,28.20
2017-08-24T08:00:16.617Z,38.47
2017-08-24T08:02:44.163Z,34.37
2017-08-24T08:05:11.715Z,31.30
2017-08-24T08:07:39.281Z,37.70
2017-08-24T08:10:06.813Z,32.20
2017-08-24T08:12:34.348Z,34.63
2017-08-24T08:15:01.933Z,36.03
2017-08-24T08:17:29.501Z,33.83
2017-08-24T08:19:57.027Z,30.50
2017-08-24T08:22:24.591Z,35.87
2017-08-24T08:24:52.129Z,28.87
2017-08-24T08:27:19.685Z,34.17
2017-08-24T08:29:47.263Z,26.77
2017-08-24T08:32:14.816Z,33.80
2017-08-24T08:34:42.353Z,30.63
2017-08-24T08:37:09.938Z,35.60
2017-08-24T08:39:37.476Z,32.93
2017-08-24T08:42:05.025Z,23.07
2017-08-24T08:44:32.673Z,28.73
2017-08-24T08:47:00.172Z,25.67
2017-08-24T08:49:27.724Z,25.53
2017-08-24T08:51:55.308Z,18.90
2017-08-24T08:54:22.845Z,23.63
2017-08-24T08:56:50.390Z,30.33
2017-08-24T08:59:17.971Z,20.20
2017-08-24T09:01:45.524Z,22.53
2017-08-24T09:04:13.085Z,26.77
2017-08-24T09:06:40.649Z,26.23
2017-08-24T09:09:08.186Z,29.60
2017-08-24T09:11:35.726Z,29.23
2017-08-24T09:14:03.300Z,28.97
2017-08-24T09:16:30.845Z,28.00
2017-08-24T09:18:58.397Z,32.30
2017-08-24T09:21:25.967Z,28.43
2017-08-24T09:23:53.514Z,26.67
2017-08-24T09:26:21.055Z,33.33
2017-08-24T09:28:48.635Z,31.97
2017-08-24T09:31:16.168Z,31.23
2017-08-24T09:33:43.707Z,28.80
2017-08-24T09:36:11.280Z,36.63
2017-08-24T09:38:38.843Z,26.33
2017-08-24T09:41:06.377Z,31.27
2017-08-24T09:43:33.959Z,38.67
2017-08-24T09:46:01.493Z,26.47
2017-08-24T09:48:29.059Z,30.53
2017-08-24T09:50:56.646Z,28.03
2017-08-24T09:53:24.176Z,37.20
2017-08-24T09:55:51.704Z,25.97
2017-08-24T09:58:19.272Z,27.43
2017-08-24T10:00:46.836Z,22.50
2017-08-24T10:03:14.392Z,34.07
2017-08-24T10:05:41.969Z,26.57
2017-08-24T10:08:09.552Z,31.40
2017-08-24T10:10:37.126Z,24.33
2017-08-24T10:13:04.720Z,30.60
2017-08-24T10:15:32.262Z,27.27
2017-08-24T10:17:59.803Z,33.30
2017-08-24T10:20:27.386Z,22.67
2017-08-24T10:22:54.924Z,27.80
2017-08-24T10:25:22.465Z,23.03
2017-08-24T10:27:50.030Z,23.87
2017-08-24T10:30:17.658Z,21.37
2017-08-24T10:32:45.146Z,32.93
2017-08-24T10:35:12.733Z,21.30
2017-08-24T10:37:40.290Z,20.90
2017-08-24T10:40:07.829Z,28.03
2017-08-24T10:42:35.411Z,26.63
2017-08-24T10:45:03.741Z,22.63
2017-08-24T10:47:31.285Z,28.53
2017-08-24T10:49:58.872Z,27.07
2017-08-24T10:52:26.433Z,31.63
2017-08-24T10:54:53.964Z,25.13
2017-08-24T10:57:21.533Z,37.27
2017-08-24T10:59:49.070Z,24.90
2017-08-24T11:02:16.613Z,24.43
2017-08-24T11:04:44.203Z,27.73
2017-08-24T11:07:11.791Z,23.60
2017-08-24T11:09:41.042Z,16.90
2017-08-24T11:12:08.613Z,23.67
2017-08-24T11:14:36.154Z,21.53
2017-08-24T11:17:03.739Z,24.87
2017-08-24T11:19:32.088Z,22.57
2017-08-24T11:21:59.632Z,28.47
2017-08-24T11:24:27.190Z,27.10
2017-08-24T11:26:54.750Z,20.80
2017-08-24T11:29:22.304Z,24.67
2017-08-24T11:31:49.866Z,21.80
2017-08-24T11:34:17.491Z,22.83
2017-08-24T11:36:45.029Z,33.33
2017-08-24T11:39:12.605Z,21.80
2017-08-24T11:41:40.173Z,36.80
2017-08-24T11:44:07.725Z,24.27
2017-08-24T11:46:35.360Z,25.83
2017-08-24T11:49:02.978Z,23.00
2017-08-24T11:51:30.605Z,19.77
2017-08-24T11:53:58.215Z,23.33
2017-08-24T11:56:25.818Z,30.00
2017-08-24T11:58:53.354Z,28.30
2017-08-24T12:01:20.910Z,22.03
2017-08-24T12:03:48.484Z,19.90
2017-08-24T12:06:16.025Z,28.13
2017-08-24T12:08:43.560Z,22.00
2017-08-24T12:11:11.157Z,25.13
2017-08-24T12:13:38.752Z,15.83
2017-08-24T12:16:06.307Z,17.93
2017-08-24T12:18:33.954Z,20.17
2017-08-24T12:21:01.518Z,21.90
2017-08-24T12:23:29.110Z,24.40
2017-08-24T12:25:56.715Z,19.63
2017-08-24T12:28:24.313Z,27.93
2017-08-24T12:30:51.869Z,16.00
2017-08-24T12:33:19.436Z,18.50
2017-08-24T12:35:46.973Z,20.23
2017-08-24T12:38:14.517Z,18.33
2017-08-24T12:40:42.132Z,19.90
2017-08-24T12:43:09.692Z,15.63
2017-08-24T12:45:37.246Z,24.50
2017-08-24T12:48:04.812Z,18.53
2017-08-24T12:50:32.356Z,17.60
2017-08-24T12:52:59.881Z,15.97
2017-08-24T12:55:27.444Z,15.17
2017-08-24T12:57:55.072Z,20.53
2017-08-24T13:00:22.635Z,20.03
2017-08-24T13:02:50.197Z,22.77
2017-08-24T13:05:17.731Z,35.10
2017-08-24T13:07:45.283Z,19.00
2017-08-24T13:10:12.873Z,24.03
2017-08-24T13:12:40.403Z,32.47
2017-08-24T13:15:07.961Z,21.83
2017-08-24T13:17:35.536Z,16.87
2017-08-24T13:20:03.074Z,17.93
2017-08-24T13:22:30.629Z,27.13
2017-08-24T13:24:58.211Z,19.37
2017-08-24T13:27:25.744Z,26.47
2017-08-24T13:29:53.280Z,17.93
2017-08-24T13:32:20.868Z,19.60
2017-08-24T13:34:49.170Z,17.27
2017-08-24T13:37:16.700Z,17.37
2017-08-24T13:39:44.284Z,17.43
2017-08-24T13:42:11.834Z,27.13
2017-08-24T13:44:39.366Z,11.50
2017-08-24T13:47:06.928Z,22.90
2017-08-24T13:49:34.463Z,16.53
2017-08-24T13:52:01.997Z,16.73
2017-08-24T13:54:29.581Z,19.50
2017-08-24T13:56:57.136Z,22.87
2017-08-24T13:59:24.676Z,21.93
2017-08-24T14:01:53.004Z,18.93
2017-08-24T14:04:20.558Z,23.73
2017-08-24T14:06:48.131Z,16.67
2017-08-24T14:09:15.719Z,20.20
2017-08-24T14:11:43.255Z,14.50
2017-08-24T14:14:10.798Z,16.67
2017-08-24T14:16:38.388Z,21.00
2017-08-24T14:19:05.949Z,19.23
2017-08-24T14:21:33.486Z,19.27
2017-08-24T14:24:01.079Z,19.60
2017-08-24T14:26:28.642Z,16.90
2017-08-24T14:28:56.177Z,20.60
2017-08-24T14:31:23.752Z,19.30
2017-08-24T14:33:51.298Z,15.97
2017-08-24T14:36:18.851Z,20.93
2017-08-24T14:38:47.277Z,18.63
2017-08-24T14:41:14.860Z,13.27
2017-08-24T14:43:42.391Z,15.17
2017-08-24T14:46:09.954Z,11.80
2017-08-24T14:48:37.484Z,13.43
2017-08-24T14:51:05.035Z,14.23
2017-08-24T14:53:32.616Z,11.50
2017-08-24T14:56:00.167Z,14.53
2017-08-24T14:58:27.710Z,12.37
2017-08-24T15:00:56.055Z,16.80
2017-08-24T15:03:23.592Z,14.10
2017-08-24T15:05:51.126Z,15.53
2017-08-24T15:08:18.711Z,14.23
2017-08-24T15:10:46.354Z,13.30
2017-08-24T15:13:13.905Z,12.80
2017-08-24T15:15:41.491Z,20.90
2017-08-24T15:18:09.026Z,24.57
2017-08-24T15:20:36.577Z,19.40
2017-08-24T15:23:04.143Z,18.90
2017-08-24T15:25:31.689Z,12.80
2017-08-24T15:27:59.234Z,16.70
2017-08-24T15:30:26.808Z,13.17
2017-08-24T15:32:54.348Z,16.13
2017-08-24T15:35:21.896Z,14.40
2017-08-24T15:37:49.471Z,11.97
2017-08-24T15:40:17.005Z,35.37
2017-08-24T15:42:44.545Z,16.70
2017-08-24T15:45:12.116Z,12.03
2017-08-24T15:47:39.655Z,10.50
2017-08-24T15:50:07.207Z,21.70
2017-08-24T15:52:34.787Z,13.60
2017-08-24T15:55:02.340Z,13.83
2017-08-24T15:57:29.901Z,14.03
2017-08-24T15:59:57.475Z,53.57
2017-08-24T16:02:25.007Z,9.90
2017-08-24T16:04:53.332Z,24.20
2017-08-24T16:07:20.911Z,11.40
2017-08-24T16:09:48.442Z,10.80
2017-08-24T16:12:15.996Z,13.40
2017-08-24T16:14:43.552Z,14.27
2017-08-24T16:17:11.084Z,22.23
2017-08-24T16:19:38.608Z,14.03
2017-08-24T16:22:06.173Z,13.73
2017-08-24T16:24:33.707Z,16.63
2017-08-24T16:27:01.249Z,12.30
2017-08-24T16:29:28.809Z,15.20
2017-08-24T16:31:57.125Z,22.30
2017-08-24T16:34:24.664Z,11.57
2017-08-24T16:36:52.251Z,15.83
2017-08-24T16:39:19.802Z,15.10
2017-08-24T16:41:47.354Z,11.73
2017-08-24T16:44:14.934Z,23.13
2017-08-24T16:46:42.468Z,12.87
2017-08-24T16:49:10.016Z,12.67
2017-08-24T16:51:37.594Z,13.77
2017-08-24T16:54:05.142Z,7.70
2017-08-24T16:56:33.461Z,11.67
2017-08-24T16:59:01.043Z,19.40
2017-08-24T17:01:28.573Z,18.33
2017-08-24T17:03:56.134Z,13.50
2017-08-24T17:06:23.729Z,13.13
2017-08-24T17:08:51.288Z,16.23
2017-08-24T17:11:18.841Z,12.77
2017-08-24T17:13:46.429Z,14.67
2017-08-24T17:16:13.985Z,12.83
2017-08-24T17:18:41.539Z,14.00
2017-08-24T17:21:09.112Z,13.70
2017-08-24T17:23:36.657Z,15.80
2017-08-24T17:26:04.180Z,17.33
2017-08-24T17:28:31.763Z,17.13
2017-08-24T17:30:59.293Z,14.50
2017-08-24T17:33:27.603Z,18.73
2017-08-24T17:35:55.187Z,22.83
2017-08-24T17:38:22.735Z,13.33
2017-08-24T17:40:50.289Z,14.33
2017-08-24T17:43:17.850Z,10.07
2017-08-24T17:45:45.396Z,14.27
2017-08-24T17:48:12.971Z,19.40
2017-08-24T17:50:40.536Z,21.40
2017-08-24T17:53:08.079Z,15.57
2017-08-24T17:55:35.643Z,20.03
2017-08-24T17:58:03.211Z,9.77
2017-08-24T18:00:30.744Z,17.97
2017-08-24T18:02:58.331Z,11.47
2017-08-24T18:05:25.890Z,12.13
2017-08-24T18:07:53.426Z,11.20
2017-08-24T18:10:20.948Z,11.63
2017-08-24T18:12:48.513Z,13.87
2017-08-24T18:15:16.060Z,14.10
2017-08-24T18:17:43.594Z,17.07
2017-08-24T18:20:11.178Z,11.70
2017-08-24T18:22:45.105Z,17.27
2017-08-24T18:25:13.141Z,10.73
2017-08-24T18:27:40.674Z,15.40
2017-08-24T18:30:08.225Z,14.17
2017-08-24T18:32:35.802Z,21.93
2017-08-24T18:35:03.355Z,14.00
2017-08-24T18:37:30.886Z,22.07
2017-08-24T18:39:58.457Z,18.57
2017-08-24T18:42:25.994Z,17.30
2017-08-24T18:44:53.532Z,14.00
2017-08-24T18:47:21.115Z,13.67
2017-08-24T18:49:48.676Z,11.43
2017-08-24T18:52:16.216Z,14.47
2017-08-24T18:54:43.800Z,10.73
2017-08-24T18:57:11.332Z,20.30
2017-08-24T18:59:49.526Z,20.27
2017-08-24T19:02:17.075Z,12.07
2017-08-24T19:04:44.622Z,14.63
2017-08-24T19:07:12.185Z,14.57
2017-08-24T19:09:39.759Z,18.70
2017-08-24T19:12:07.285Z,14.03
2017-08-24T19:14:34.862Z,12.40
2017-08-24T19:17:02.405Z,16.30
2017-08-24T19:19:31.691Z,13.20
2017-08-24T19:22:00.905Z,16.50
2017-08-24T19:24:30.096Z,12.13
2017-08-24T19:26:59.280Z,14.37
2017-08-24T19:29:26.844Z,12.60
2017-08-24T19:31:54.393Z,16.43
2017-08-24T19:34:21.963Z,15.93
2017-08-24T19:36:49.584Z,14.77
2017-08-24T19:39:17.120Z,13.77
2017-08-24T19:41:44.784Z,15.20
2017-08-24T19:44:12.373Z,12.87
2017-08-24T19:46:39.908Z,15.30
2017-08-24T19:49:07.512Z,12.77
2017-08-24T19:51:35.065Z,9.20
2017-08-24T19:54:02.619Z,10.30
2017-08-24T19:56:30.205Z,7.83
2017-08-24T19:58:57.921Z,6.80
2017-08-24T20:01:25.462Z,12.83
2017-08-24T20:03:52.998Z,11.13
2017-08-24T20:06:20.569Z,7.37
2017-08-24T20:08:48.876Z,8.60
2017-08-24T20:11:16.456Z,11.63
2017-08-24T20:13:44.022Z,10.10
2017-08-24T20:16:11.574Z,10.07
2017-08-24T20:18:39.265Z,8.60
2017-08-24T20:21:06.857Z,7.83
2017-08-24T20:23:34.411Z,8.83
2017-08-24T20:26:01.944Z,10.80
2017-08-24T20:28:29.583Z,17.13
2017-08-24T20:30:57.148Z,11.57
2017-08-24T20:33:24.709Z,13.20
2017-08-24T20:35:52.297Z,23.27
2017-08-24T20:38:19.845Z,8.10
2017-08-24T20:40:47.400Z,14.63
2017-08-24T20:43:14.975Z,10.20
2017-08-24T20:45:42.523Z,14.47
2017-08-24T20:48:10.077Z,7.93
2017-08-24T20:50:37.643Z,11.50
2017-08-24T20:53:05.188Z,7.60
2017-08-24T20:55:32.731Z,9.23
2017-08-24T20:58:00.313Z,8.23
2017-08-24T21:00:27.864Z,9.67
2017-08-24T21:02:55.396Z,7.67
2017-08-24T21:05:22.960Z,7.43
2017-08-24T21:07:50.513Z,6.30
2017-08-24T21:10:18.054Z,5.50
2017-08-24T21:12:45.627Z,5.87
2017-08-24T21:15:13.178Z,6.20
2017-08-24T21:17:40.728Z,10.13
2017-08-24T21:20:08.315Z,4.40
2017-08-24T21:22:35.841Z,6.53
2017-08-24T21:25:03.386Z,9.43
2017-08-24T21:27:30.942Z,12.63
2017-08-24T21:29:58.491Z,11.60
2017-08-24T21:32:26.021Z,11.43
2017-08-24T21:34:53.590Z,13.57
2017-08-24T21:37:21.136Z,12.00
2017-08-24T21:39:48.945Z,7.67
2017-08-24T21:42:17.284Z,6.00
2017-08-24T21:44:44.820Z,11.30
2017-08-24T21:47:12.343Z,13.20
2017-08-24T21:49:39.900Z,12.30
2017-08-24T21:52:07.425Z,7.20
2017-08-24T21:54:34.964Z,8.07
2017-08-24T21:57:02.548Z,7.47
2017-08-24T21:59:30.095Z,8.37
2017-08-24T22:01:57.650Z,12.87
2017-08-24T22:04:25.224Z,5.80
2017-08-24T22:06:52.753Z,9.97
2017-08-24T22:09:20.279Z,5.10
2017-08-24T22:11:47.851Z,6.73
2017-08-24T22:14:15.405Z,6.93
2017-08-24T22:16:42.932Z,10.53
2017-08-24T22:19:10.518Z,4.87
2017-08-24T22:21:38.049Z,8.20
2017-08-24T22:24:05.605Z,8.83
2017-08-24T22:26:33.164Z,10.00
2017-08-24T22:29:00.713Z,12.40
2017-08-24T22:31:29.027Z,14.40
2017-08-24T22:33:56.599Z,6.63
2017-08-24T22:36:24.134Z,10.00
2017-08-24T22:38:51.670Z,4.87
2017-08-24T22:41:19.244Z,7.17
2017-08-24T22:43:46.804Z,8.83
2017-08-24T22:46:14.341Z,6.50
2017-08-24T22:48:41.907Z,8.23
2017-08-24T22:51:09.428Z,4.47
2017-08-24T22:53:42.799Z,4.37
2017-08-24T22:56:15.902Z,8.50
2017-08-24T22:58:49.084Z,11.97
2017-08-24T23:01:22.234Z,5.80
2017-08-24T23:03:55.472Z,5.70
2017-08-24T23:06:22.998Z,6.47
2017-08-24T23:08:50.529Z,8.80
2017-08-24T23:11:18.108Z,10.33
2017-08-24T23:13:45.637Z,4.03
2017-08-24T23:16:13.190Z,13.17
2017-08-24T23:18:40.758Z,6.80
2017-08-24T23:21:08.288Z,6.73
2017-08-24T23:23:35.832Z,8.07
2017-08-24T23:26:03.415Z,3.30
2017-08-24T23:28:30.953Z,10.63
2017-08-24T23:30:58.490Z,6.00
2017-08-24T23:33:26.071Z,19.83
2017-08-24T23:35:53.622Z,12.53
2017-08-24T23:38:21.155Z,9.17
2017-08-24T23:40:48.723Z,7.40
2017-08-24T23:43:16.251Z,10.03
2017-08-24T23:45:43.797Z,14.40
2017-08-24T23:48:11.377Z,6.80
2017-08-24T23:50:38.912Z,10.17
2017-08-24T23:53:06.456Z,8.27
2017-08-24T23:55:34.013Z,7.50
2017-08-24T23:58:01.545Z,8.83
